createdAt,value
2022-08-01T00:00:09.065Z,48.4599609375
2022-08-01T00:01:07.242Z,48.3466796875
2022-08-01T00:02:07.732Z,48.46484375
2022-08-01T00:03:07.247Z,48.5771484375
2022-08-01T00:04:10.339Z,48.6669921875
2022-08-01T00:05:07.322Z,48.734375
2022-08-01T00:06:07.267Z,48.6552734375
2022-08-01T00:07:07.253Z,48.5888671875
2022-08-01T00:08:07.674Z,48.599609375
2022-08-01T00:09:07.605Z,48.576171875
2022-08-01T00:10:07.271Z,48.611328125
2022-08-01T00:11:07.233Z,48.849609375
2022-08-01T00:12:07.457Z,49.041015625
2022-08-01T00:13:07.250Z,49.31640625
2022-08-01T00:14:07.672Z,49.408203125
2022-08-01T00:15:10.274Z,49.4609375
2022-08-01T00:16:07.310Z,50.044921875
2022-08-01T00:17:07.666Z,50.06640625
2022-08-01T00:18:07.265Z,50.0078125
2022-08-01T00:19:07.664Z,50.177734375
2022-08-01T00:20:07.340Z,50.177734375
2022-08-01T00:21:07.266Z,50.2578125
2022-08-01T00:22:07.615Z,50.3134765625
2022-08-01T00:23:07.674Z,50.462890625
2022-08-01T00:24:07.598Z,50.486328125
2022-08-01T00:25:07.342Z,50.630859375
2022-08-01T00:26:10.237Z,50.5849609375
2022-08-01T00:27:07.310Z,50.650390625
2022-08-01T00:28:07.237Z,50.9677734375
2022-08-01T00:29:49.980Z,51.2197265625
2022-08-01T00:30:11.394Z,51.2294921875
2022-08-01T00:31:07.233Z,51.0908203125
2022-08-01T00:32:07.597Z,51.16015625
2022-08-01T00:33:07.235Z,51.1494140625
2022-08-01T00:34:07.673Z,51.3994140625
2022-08-01T00:35:07.352Z,51.53515625
2022-08-01T00:36:07.239Z,51.7177734375
2022-08-01T00:37:10.239Z,51.8759765625
2022-08-01T00:38:07.612Z,51.8857421875
2022-08-01T00:39:07.598Z,52.3056640625
2022-08-01T00:40:07.327Z,52.3974609375
2022-08-01T00:41:07.240Z,52.3974609375
2022-08-01T00:42:07.356Z,52.6484375
2022-08-01T00:43:07.369Z,52.828125
2022-08-01T00:44:07.670Z,53.1474609375
2022-08-01T00:45:07.326Z,53.1357421875
2022-08-01T00:46:07.248Z,53.1337890625
2022-08-01T00:47:07.345Z,53.2255859375
2022-08-01T00:48:10.316Z,53.3974609375
2022-08-01T00:49:07.609Z,53.513671875
2022-08-01T00:50:07.345Z,53.5791015625
2022-08-01T00:51:07.258Z,53.603515625
2022-08-01T00:52:07.655Z,53.46484375
2022-08-01T00:53:07.600Z,53.4384765625
2022-08-01T00:54:07.609Z,53.552734375
2022-08-01T00:55:07.223Z,53.2900390625
2022-08-01T00:56:07.237Z,53.34765625
2022-08-01T00:57:10.248Z,53.47265625
2022-08-01T00:58:07.276Z,53.5078125
2022-08-01T00:59:14.118Z,53.359375
2022-08-01T01:00:07.357Z,53.4609375
2022-08-01T01:01:07.273Z,53.2197265625
2022-08-01T01:02:14.883Z,53.15234375
2022-08-01T01:03:07.235Z,53.140625
2022-08-01T01:04:08.416Z,53.037109375
2022-08-01T01:05:07.233Z,53.0458984375
2022-08-01T01:06:07.230Z,53.2509765625
2022-08-01T01:07:07.245Z,53.31640625
2022-08-01T01:08:07.671Z,53.3857421875
2022-08-01T01:09:07.603Z,53.3515625
2022-08-01T01:10:10.250Z,53.31640625
2022-08-01T01:11:07.329Z,53.3740234375
2022-08-01T01:12:07.601Z,53.61328125
2022-08-01T01:13:07.260Z,53.521484375
2022-08-01T01:14:07.664Z,53.611328125
2022-08-01T01:15:07.454Z,53.6806640625
2022-08-01T01:16:10.256Z,53.6025390625
2022-08-01T01:17:07.322Z,53.4560546875
2022-08-01T01:18:07.246Z,53.521484375
2022-08-01T01:19:07.679Z,53.6259765625
2022-08-01T01:20:07.312Z,53.91796875
2022-08-01T01:21:07.255Z,53.5302734375
2022-08-01T01:22:07.617Z,53.51953125
2022-08-01T01:23:07.673Z,53.42578125
2022-08-01T01:24:07.595Z,53.2890625
2022-08-01T01:25:07.324Z,52.8798828125
2022-08-01T01:26:07.225Z,52.8818359375
2022-08-01T01:27:10.246Z,52.67578125
2022-08-01T01:28:07.321Z,52.7109375
2022-08-01T01:29:07.666Z,52.685546875
2022-08-01T01:30:07.356Z,52.83203125
2022-08-01T01:31:07.240Z,52.923828125
2022-08-01T01:32:07.624Z,52.9560546875
2022-08-01T01:33:07.228Z,52.9580078125
2022-08-01T01:34:07.231Z,53.0009765625
2022-08-01T01:35:07.361Z,53.0458984375
2022-08-01T01:36:07.565Z,52.9736328125
2022-08-01T01:37:07.230Z,53.3681640625
2022-08-01T01:38:13.285Z,53.662109375
2022-08-01T01:39:07.613Z,53.7861328125
2022-08-01T01:40:07.283Z,54.0380859375
2022-08-01T01:41:07.323Z,54.103515625
2022-08-01T01:42:07.596Z,54.126953125
2022-08-01T01:43:07.283Z,54.1650390625
2022-08-01T01:44:10.667Z,54.38671875
2022-08-01T01:45:07.334Z,54.4677734375
2022-08-01T01:46:07.262Z,54.4677734375
2022-08-01T01:47:07.254Z,54.38671875
2022-08-01T01:48:07.253Z,54.5009765625
2022-08-01T01:49:07.744Z,54.4326171875
2022-08-01T01:50:07.250Z,54.513671875
2022-08-01T01:51:07.241Z,54.3076171875
2022-08-01T01:52:07.450Z,54.53515625
2022-08-01T01:53:07.673Z,54.6083984375
2022-08-01T01:54:07.591Z,54.7109375
2022-08-01T01:55:10.201Z,54.5859375
2022-08-01T01:56:07.237Z,54.529296875
2022-08-01T01:57:07.228Z,54.6865234375
2022-08-01T01:58:07.233Z,54.7666015625
2022-08-01T01:59:07.665Z,54.7294921875
2022-08-01T02:00:07.470Z,54.955078125
2022-08-01T02:01:14.274Z,55.046875
2022-08-01T02:02:07.422Z,55.3115234375
2022-08-01T02:03:07.283Z,55.400390625
2022-08-01T02:04:07.666Z,55.435546875
2022-08-01T02:05:07.307Z,55.595703125
2022-08-01T02:06:10.236Z,55.7900390625
2022-08-01T02:07:07.243Z,55.9052734375
2022-08-01T02:08:07.669Z,55.9931640625
2022-08-01T02:09:07.609Z,56.0751953125
2022-08-01T02:10:07.381Z,56.0283203125
2022-08-01T02:11:07.235Z,56.3291015625
2022-08-01T02:12:09.051Z,56.1806640625
2022-08-01T02:13:07.253Z,56.33984375
2022-08-01T02:14:07.662Z,56.3427734375
2022-08-01T02:15:07.363Z,56.3740234375
2022-08-01T02:16:07.251Z,56.4091796875
2022-08-01T02:17:10.306Z,56.5009765625
2022-08-01T02:18:07.320Z,56.443359375
2022-08-01T02:19:07.677Z,56.705078125
2022-08-01T02:20:07.321Z,56.6494140625
2022-08-01T02:21:07.241Z,56.7275390625
2022-08-01T02:22:07.673Z,56.759765625
2022-08-01T02:23:07.611Z,56.9560546875
2022-08-01T02:24:07.604Z,56.8203125
2022-08-01T02:25:07.245Z,56.8203125
2022-08-01T02:26:09.153Z,56.705078125
2022-08-01T02:27:07.278Z,56.8203125
2022-08-01T02:28:07.252Z,56.7314453125
2022-08-01T02:29:07.613Z,56.720703125
2022-08-01T02:30:07.307Z,56.6650390625
2022-08-01T02:31:07.232Z,56.576171875
2022-08-01T02:32:07.677Z,56.595703125
2022-08-01T02:33:15.647Z,56.6083984375
2022-08-01T02:34:07.614Z,56.666015625
2022-08-01T02:35:07.357Z,56.7548828125
2022-08-01T02:36:30.124Z,56.798828125
2022-08-01T02:37:07.241Z,56.822265625
2022-08-01T02:38:07.712Z,57.0478515625
2022-08-01T02:39:07.609Z,56.990234375
2022-08-01T02:40:07.252Z,56.966796875
2022-08-01T02:41:07.251Z,57.0234375
2022-08-01T02:42:07.597Z,57.033203125
2022-08-01T02:43:07.307Z,57.123046875
2022-08-01T02:44:13.267Z,57.267578125
2022-08-01T02:45:07.339Z,57.3701171875
2022-08-01T02:46:07.320Z,57.4921875
2022-08-01T02:47:07.295Z,57.5693359375
2022-08-01T02:48:07.248Z,57.810546875
2022-08-01T02:49:07.688Z,57.9560546875
2022-08-01T02:50:07.240Z,58.0458984375
2022-08-01T02:51:07.258Z,58.1123046875
2022-08-01T02:52:07.631Z,58.0634765625
2022-08-01T02:53:07.681Z,58.1533203125
2022-08-01T02:54:07.604Z,58.3466796875
2022-08-01T02:55:07.235Z,58.37109375
2022-08-01T02:56:07.231Z,58.3701171875
2022-08-01T02:57:07.243Z,58.4130859375
2022-08-01T02:58:07.251Z,58.5703125
2022-08-01T02:59:08.001Z,58.70703125
2022-08-01T03:00:10.259Z,58.830078125
2022-08-01T03:01:07.391Z,58.94140625
2022-08-01T03:02:07.686Z,59.044921875
2022-08-01T03:03:07.322Z,59.12109375
2022-08-01T03:04:07.676Z,59.1669921875
2022-08-01T03:05:07.307Z,59.3603515625
2022-08-01T03:06:07.251Z,59.2275390625
2022-08-01T03:07:07.254Z,59.0576171875
2022-08-01T03:08:14.546Z,59.0908203125
2022-08-01T03:09:07.600Z,59.0615234375
2022-08-01T03:10:07.456Z,58.80078125
2022-08-01T03:11:10.272Z,58.72265625
2022-08-01T03:12:07.763Z,58.5439453125
2022-08-01T03:13:07.237Z,58.4873046875
2022-08-01T03:14:07.665Z,58.5869140625
2022-08-01T03:15:07.317Z,58.6298828125
2022-08-01T03:16:07.236Z,58.6416015625
2022-08-01T03:17:07.253Z,58.7900390625
2022-08-01T03:18:07.253Z,58.7578125
2022-08-01T03:19:07.664Z,58.712890625
2022-08-01T03:20:07.321Z,58.6796875
2022-08-01T03:21:07.234Z,58.7939453125
2022-08-01T03:22:10.252Z,58.6279296875
2022-08-01T03:23:07.724Z,58.333984375
2022-08-01T03:24:07.336Z,58.076171875
2022-08-01T03:25:07.211Z,57.849609375
2022-08-01T03:26:07.459Z,57.4833984375
2022-08-01T03:27:07.252Z,57.28125
2022-08-01T03:28:07.228Z,57.1162109375
2022-08-01T03:29:07.680Z,56.9482421875
2022-08-01T03:30:07.320Z,56.7216796875
2022-08-01T03:31:07.245Z,56.642578125
2022-08-01T03:32:07.548Z,56.384765625
2022-08-01T03:33:10.273Z,56.2578125
2022-08-01T03:34:07.711Z,56.349609375
2022-08-01T03:35:07.342Z,56.384765625
2022-08-01T03:36:07.242Z,56.2373046875
2022-08-01T03:37:07.342Z,56.2705078125
2022-08-01T03:38:16.418Z,56.1708984375
2022-08-01T03:39:13.308Z,56.1376953125
2022-08-01T03:40:07.342Z,56.0693359375
2022-08-01T03:41:07.247Z,56.0361328125
2022-08-01T03:42:07.439Z,56.037109375
2022-08-01T03:43:07.254Z,55.9111328125
2022-08-01T03:44:07.342Z,55.91015625
2022-08-01T03:45:07.233Z,55.83203125
2022-08-01T03:46:07.235Z,55.8984375
2022-08-01T03:47:07.354Z,56
2022-08-01T03:48:07.253Z,55.9658203125
2022-08-01T03:49:07.700Z,55.8984375
2022-08-01T03:50:12.026Z,55.8525390625
2022-08-01T03:51:07.238Z,55.9208984375
2022-08-01T03:52:07.567Z,55.9912109375
2022-08-01T03:53:07.264Z,55.853515625
2022-08-01T03:54:07.333Z,55.8193359375
2022-08-01T03:55:10.218Z,55.865234375
2022-08-01T03:56:07.309Z,55.8642578125
2022-08-01T03:57:07.255Z,55.84375
2022-08-01T03:58:09.735Z,55.8447265625
2022-08-01T03:59:07.819Z,55.775390625
2022-08-01T04:01:05.364Z,55.77734375
2022-08-01T04:01:07.320Z,55.640625
2022-08-01T04:02:07.462Z,55.6513671875
2022-08-01T04:03:07.249Z,55.6630859375
2022-08-01T04:04:07.607Z,55.7666015625
2022-08-01T04:05:07.349Z,55.7978515625
2022-08-01T04:06:07.247Z,55.8447265625
2022-08-01T04:07:07.256Z,55.912109375
2022-08-01T04:08:07.680Z,55.787109375
2022-08-01T04:09:12.816Z,55.888671875
2022-08-01T04:10:07.412Z,56
2022-08-01T04:11:07.249Z,56.080078125
2022-08-01T04:12:11.915Z,56.1572265625
2022-08-01T04:13:07.332Z,56.4130859375
2022-08-01T04:14:08.669Z,56.6953125
2022-08-01T04:15:07.357Z,56.794921875
2022-08-01T04:16:07.239Z,57.1083984375
2022-08-01T04:17:07.235Z,57.3564453125
2022-08-01T04:18:07.249Z,57.501953125
2022-08-01T04:19:07.681Z,57.880859375
2022-08-01T04:20:07.311Z,58.130859375
2022-08-01T04:21:07.260Z,58.4462890625
2022-08-01T04:22:07.598Z,58.4541015625
2022-08-01T04:23:13.351Z,58.712890625
2022-08-01T04:24:07.603Z,58.8935546875
2022-08-01T04:25:07.311Z,59.0849609375
2022-08-01T04:26:07.258Z,59.2109375
2022-08-01T04:27:07.329Z,59.1904296875
2022-08-01T04:28:07.245Z,59.1357421875
2022-08-01T04:29:07.621Z,59.1591796875
2022-08-01T04:30:07.354Z,58.9140625
2022-08-01T04:31:07.255Z,58.69140625
2022-08-01T04:32:07.611Z,58.4453125
2022-08-01T04:33:07.239Z,58.177734375
2022-08-01T04:34:13.300Z,57.908203125
2022-08-01T04:35:23.654Z,57.7529296875
2022-08-01T04:36:07.357Z,57.5849609375
2022-08-01T04:37:07.249Z,57.2568359375
2022-08-01T04:38:07.668Z,57.2548828125
2022-08-01T04:39:07.621Z,57.3017578125
2022-08-01T04:40:10.214Z,57.2421875
2022-08-01T04:41:09.016Z,57.28515625
2022-08-01T04:42:07.567Z,57.3466796875
2022-08-01T04:43:07.267Z,57.267578125
2022-08-01T04:44:07.607Z,57.1328125
2022-08-01T04:45:07.313Z,57.0556640625
2022-08-01T04:46:07.244Z,56.744140625
2022-08-01T04:47:07.364Z,56.3603515625
2022-08-01T04:48:07.331Z,56.0576171875
2022-08-01T04:49:07.742Z,55.7197265625
2022-08-01T04:50:07.317Z,55.4716796875
2022-08-01T04:51:10.231Z,55.361328125
2022-08-01T04:52:07.672Z,55.091796875
2022-08-01T04:53:07.617Z,54.7763671875
2022-08-01T04:54:07.603Z,54.6513671875
2022-08-01T04:55:07.351Z,54.482421875
2022-08-01T04:56:07.249Z,54.45703125
2022-08-01T04:57:07.240Z,54.447265625
2022-08-01T04:58:07.243Z,54.2255859375
2022-08-01T04:59:07.675Z,54.0322265625
2022-08-01T05:00:07.350Z,53.8505859375
2022-08-01T05:01:07.268Z,53.8271484375
2022-08-01T05:02:10.298Z,53.759765625
2022-08-01T05:03:07.298Z,53.6923828125
2022-08-01T05:04:07.668Z,53.4677734375
2022-08-01T05:05:07.315Z,53.37890625
2022-08-01T05:06:07.260Z,53.2431640625
2022-08-01T05:07:07.381Z,53.20703125
2022-08-01T05:08:07.596Z,53.3310546875
2022-08-01T05:09:07.280Z,53.4990234375
2022-08-01T05:10:07.238Z,53.5126953125
2022-08-01T05:11:07.265Z,53.38671875
2022-08-01T05:12:07.642Z,53.3662109375
2022-08-01T05:13:10.252Z,53.2431640625
2022-08-01T05:14:07.621Z,52.984375
2022-08-01T05:15:11.719Z,52.75
2022-08-01T05:16:07.253Z,52.638671875
2022-08-01T05:17:07.243Z,52.3671875
2022-08-01T05:18:07.645Z,51.970703125
2022-08-01T05:19:07.597Z,51.7099609375
2022-08-01T05:20:07.346Z,51.732421875
2022-08-01T05:21:07.259Z,51.6640625
2022-08-01T05:22:07.733Z,51.796875
2022-08-01T05:23:10.664Z,51.9658203125
2022-08-01T05:24:10.225Z,52.14453125
2022-08-01T05:25:07.352Z,52.2939453125
2022-08-01T05:26:07.262Z,52.3818359375
2022-08-01T05:27:07.333Z,52.6552734375
2022-08-01T05:28:07.373Z,52.8857421875
2022-08-01T05:29:07.767Z,52.748046875
2022-08-01T05:30:07.255Z,52.748046875
2022-08-01T05:31:07.338Z,52.9111328125
2022-08-01T05:32:07.876Z,52.9482421875
2022-08-01T05:33:07.245Z,52.8896484375
2022-08-01T05:34:07.671Z,52.7041015625
2022-08-01T05:35:10.190Z,52.72265625
2022-08-01T05:36:07.316Z,52.8095703125
2022-08-01T05:37:07.242Z,52.990234375
2022-08-01T05:38:07.679Z,53.0537109375
2022-08-01T05:39:07.610Z,53.2919921875
2022-08-01T05:40:07.337Z,53.4609375
2022-08-01T05:41:07.254Z,53.4384765625
2022-08-01T05:42:07.636Z,53.4482421875
2022-08-01T05:43:07.257Z,53.50390625
2022-08-01T05:44:07.606Z,53.720703125
2022-08-01T05:45:07.323Z,53.7412109375
2022-08-01T05:46:07.245Z,53.80078125
2022-08-01T05:47:07.336Z,53.646484375
2022-08-01T05:48:07.443Z,53.412109375
2022-08-01T05:49:07.716Z,52.9951171875
2022-08-01T05:50:07.243Z,52.6181640625
2022-08-01T05:51:10.304Z,52.4169921875
2022-08-01T05:52:07.682Z,52.203125
2022-08-01T05:53:07.366Z,52.103515625
2022-08-01T05:54:07.600Z,51.8193359375
2022-08-01T05:55:07.345Z,51.76171875
2022-08-01T05:56:07.244Z,51.6298828125
2022-08-01T05:57:10.253Z,51.3251953125
2022-08-01T05:58:07.340Z,51.09765625
2022-08-01T05:59:07.672Z,50.8369140625
2022-08-01T06:00:07.335Z,50.6884765625
2022-08-01T06:01:07.240Z,50.689453125
2022-08-01T06:02:07.651Z,50.7001953125
2022-08-01T06:03:07.231Z,50.734375
2022-08-01T06:04:07.671Z,50.7236328125
2022-08-01T06:05:09.092Z,50.4658203125
2022-08-01T06:06:07.241Z,50.1630859375
2022-08-01T06:07:07.265Z,50.05078125
2022-08-01T06:08:13.254Z,49.697265625
2022-08-01T06:09:07.593Z,49.6748046875
2022-08-01T06:10:07.337Z,49.7783203125
2022-08-01T06:11:07.229Z,49.7421875
2022-08-01T06:12:07.555Z,49.7548828125
2022-08-01T06:13:07.243Z,49.5185546875
2022-08-01T06:14:08.340Z,49.28125
2022-08-01T06:15:07.224Z,49.1337890625
2022-08-01T06:16:07.239Z,48.951171875
2022-08-01T06:17:07.315Z,48.880859375
2022-08-01T06:18:07.247Z,49.2197265625
2022-08-01T06:19:13.314Z,49.2421875
2022-08-01T06:20:07.328Z,49.2548828125
2022-08-01T06:21:07.231Z,49.298828125
2022-08-01T06:22:07.579Z,49.130859375
2022-08-01T06:23:31.084Z,49.1083984375
2022-08-01T06:24:07.439Z,49.2783203125
2022-08-01T06:25:07.236Z,49.3232421875
2022-08-01T06:26:07.358Z,49.42578125
2022-08-01T06:27:21.709Z,49.4931640625
2022-08-01T06:28:07.678Z,49.64453125
2022-08-01T06:29:07.332Z,49.7578125
2022-08-01T06:30:10.223Z,49.7509765625
2022-08-01T06:31:07.354Z,49.3095703125
2022-08-01T06:32:08.167Z,48.98046875
2022-08-01T06:33:07.614Z,48.8720703125
2022-08-01T06:34:07.316Z,48.533203125
2022-08-01T06:35:07.250Z,47.9443359375
2022-08-01T06:36:07.248Z,47.3662109375
2022-08-01T06:37:07.253Z,47.1982421875
2022-08-01T06:38:07.618Z,46.57421875
2022-08-01T06:39:07.245Z,46.06640625
2022-08-01T06:40:07.260Z,45.3408203125
2022-08-01T06:41:10.251Z,44.453125
2022-08-01T06:42:07.630Z,43.9853515625
2022-08-01T06:43:07.689Z,43.8017578125
2022-08-01T06:44:07.321Z,43.615234375
2022-08-01T06:45:07.340Z,42.978515625
2022-08-01T06:46:07.235Z,42.396484375
2022-08-01T06:47:07.617Z,41.970703125
2022-08-01T06:48:07.689Z,41.958984375
2022-08-01T06:49:07.347Z,41.947265625
2022-08-01T06:50:07.258Z,41.9033203125
2022-08-01T06:51:07.253Z,41.4541015625
2022-08-01T06:52:10.649Z,41.9462890625
2022-08-01T06:53:07.619Z,41.740234375
2022-08-01T06:54:07.337Z,41.796875
2022-08-01T06:55:07.336Z,41.65234375
2022-08-01T06:56:07.262Z,41.1962890625
2022-08-01T06:57:07.257Z,40.546875
2022-08-01T06:58:07.619Z,40.2021484375
2022-08-01T06:59:07.234Z,40.0986328125
2022-08-01T07:00:07.233Z,40.1328125
2022-08-01T07:01:07.434Z,39.6875
2022-08-01T07:02:08.165Z,39.6845703125
2022-08-01T07:03:13.294Z,39.662109375
2022-08-01T07:04:07.331Z,39.6630859375
2022-08-01T07:05:07.259Z,39.103515625
2022-08-01T07:06:07.266Z,39.23046875
2022-08-01T07:07:07.252Z,39.30078125
2022-08-01T07:08:07.697Z,40.224609375
2022-08-01T07:09:09.668Z,40.728515625
2022-08-01T07:10:07.374Z,40.4501953125
2022-08-01T07:11:07.244Z,39.9580078125
2022-08-01T07:12:07.544Z,39.373046875
2022-08-01T07:13:07.687Z,39.1982421875
2022-08-01T07:14:10.257Z,39.32421875
2022-08-01T07:15:07.318Z,39.373046875
2022-08-01T07:16:07.230Z,39.068359375
2022-08-01T07:17:07.616Z,38.7490234375
2022-08-01T07:18:07.617Z,37.75
2022-08-01T07:19:07.337Z,37.4052734375
2022-08-01T07:20:07.253Z,36.8671875
2022-08-01T07:21:07.239Z,35.9052734375
2022-08-01T07:22:07.582Z,35.1787109375
2022-08-01T07:23:08.074Z,34.3916015625
2022-08-01T07:24:09.218Z,34.080078125
2022-08-01T07:25:10.249Z,33.9658203125
2022-08-01T07:26:07.340Z,33.896484375
2022-08-01T07:27:23.889Z,33.251953125
2022-08-01T07:28:07.765Z,33.16015625
2022-08-01T07:29:07.457Z,33.005859375
2022-08-01T07:30:07.249Z,33.4765625
2022-08-01T07:31:07.308Z,34.083984375
2022-08-01T07:32:08.027Z,34.53515625
2022-08-01T07:33:07.619Z,34.5830078125
2022-08-01T07:34:07.369Z,34.734375
2022-08-01T07:35:07.253Z,34.7939453125
2022-08-01T07:36:10.207Z,34.3310546875
2022-08-01T07:37:07.305Z,34.146484375
2022-08-01T07:38:12.330Z,33.9482421875
2022-08-01T07:39:07.322Z,33.916015625
2022-08-01T07:40:07.248Z,33.1767578125
2022-08-01T07:41:07.344Z,32.451171875
2022-08-01T07:42:08.390Z,31.8759765625
2022-08-01T07:43:07.687Z,30.576171875
2022-08-01T07:44:07.310Z,27.96875
2022-08-01T07:45:07.256Z,27.7080078125
2022-08-01T07:46:07.259Z,28.0546875
2022-08-01T07:47:11.758Z,27.7900390625
2022-08-01T07:48:08.904Z,26.755859375
2022-08-01T07:49:07.368Z,26.259765625
2022-08-01T07:50:07.256Z,25.7529296875
2022-08-01T07:51:07.251Z,25.9736328125
2022-08-01T07:52:07.242Z,25.9267578125
2022-08-01T07:53:07.382Z,25.9384765625
2022-08-01T07:54:07.256Z,25.5419921875
2022-08-01T07:55:07.252Z,25.587890625
2022-08-01T07:56:07.250Z,25.4375
2022-08-01T07:57:07.251Z,24.6357421875
2022-08-01T07:58:13.315Z,23.900390625
2022-08-01T07:59:07.352Z,23.619140625
2022-08-01T08:00:07.348Z,23.515625
2022-08-01T08:01:07.358Z,23.1162109375
2022-08-01T08:02:07.908Z,23.2109375
2022-08-01T08:03:07.619Z,22.4619140625
2022-08-01T08:04:07.251Z,21.958984375
2022-08-01T08:05:07.236Z,20.8662109375
2022-08-01T08:06:07.249Z,20.75
2022-08-01T08:07:07.497Z,20.3154296875
2022-08-01T08:08:07.613Z,19.7744140625
2022-08-01T08:09:10.226Z,19.6220703125
2022-08-01T08:10:07.359Z,19.6435546875
2022-08-01T08:11:07.255Z,20.439453125
2022-08-01T08:12:07.767Z,20.9580078125
2022-08-01T08:13:07.683Z,21.0009765625
2022-08-01T08:14:07.319Z,21.4716796875
2022-08-01T08:15:07.317Z,22.09375
2022-08-01T08:16:07.225Z,22.4775390625
2022-08-01T08:17:07.618Z,22.5693359375
2022-08-01T08:18:07.616Z,23.244140625
2022-08-01T08:19:07.328Z,24.2119140625
2022-08-01T08:20:10.294Z,24.654296875
2022-08-01T08:21:07.350Z,25.287109375
2022-08-01T08:22:07.898Z,25.447265625
2022-08-01T08:23:07.607Z,26.296875
2022-08-01T08:24:07.329Z,26.296875
2022-08-01T08:25:07.781Z,25.9404296875
2022-08-01T08:26:07.257Z,25.7958984375
2022-08-01T08:27:07.248Z,26.0419921875
2022-08-01T08:28:07.686Z,26.005859375
2022-08-01T08:29:07.329Z,26.4326171875
2022-08-01T08:30:07.334Z,27.3046875
2022-08-01T08:31:24.555Z,27.7001953125
2022-08-01T08:32:07.816Z,28.4462890625
2022-08-01T08:33:07.634Z,28.9560546875
2022-08-01T08:34:07.330Z,29.44140625
2022-08-01T08:35:07.252Z,29.4765625
2022-08-01T08:36:07.383Z,29.751953125
2022-08-01T08:37:07.262Z,30.330078125
2022-08-01T08:38:07.731Z,30.6904296875
2022-08-01T08:39:07.343Z,30.72265625
2022-08-01T08:40:07.235Z,31.0693359375
2022-08-01T08:41:07.252Z,31.0791015625
2022-08-01T08:42:10.227Z,30.7314453125
2022-08-01T08:43:07.625Z,30.5234375
2022-08-01T08:44:10.358Z,30.5234375
2022-08-01T08:45:07.250Z,30.2822265625
2022-08-01T08:46:07.268Z,29.958984375
2022-08-01T08:47:09.320Z,29.6455078125
2022-08-01T08:48:07.612Z,28.98046875
2022-08-01T08:49:07.388Z,29.08203125
2022-08-01T08:50:07.245Z,29.4296875
2022-08-01T08:51:07.251Z,29.314453125
2022-08-01T08:52:08.913Z,28.505859375
2022-08-01T08:53:17.010Z,27.953125
2022-08-01T08:54:07.363Z,27.4658203125
2022-08-01T08:55:07.240Z,27.279296875
2022-08-01T08:56:07.237Z,27.4326171875
2022-08-01T08:57:07.265Z,27.052734375
2022-08-01T08:58:07.684Z,26.271484375
2022-08-01T08:59:07.260Z,25.8271484375
2022-08-01T09:00:07.364Z,25.60546875
2022-08-01T09:01:07.273Z,25.8251953125
2022-08-01T09:02:08.283Z,25.951171875
2022-08-01T09:03:07.467Z,26.2890625
2022-08-01T09:04:10.243Z,26.794921875
2022-08-01T09:05:07.351Z,27.095703125
2022-08-01T09:06:07.249Z,26.8671875
2022-08-01T09:07:07.337Z,26.1611328125
2022-08-01T09:08:07.612Z,25.7802734375
2022-08-01T09:09:07.347Z,25.630859375
2022-08-01T09:10:07.258Z,25.037109375
2022-08-01T09:11:07.237Z,24.4296875
2022-08-01T09:12:07.417Z,24.185546875
2022-08-01T09:13:07.684Z,23.6953125
2022-08-01T09:14:07.319Z,23.4853515625
2022-08-01T09:15:10.202Z,23.400390625
2022-08-01T09:16:07.307Z,24.30859375
2022-08-01T09:17:07.735Z,24.77734375
2022-08-01T09:18:07.615Z,24.1845703125
2022-08-01T09:19:07.309Z,24.009765625
2022-08-01T09:20:07.298Z,23.904296875
2022-08-01T09:21:07.236Z,23.248046875
2022-08-01T09:22:07.562Z,23.083984375
2022-08-01T09:23:07.691Z,23.0947265625
2022-08-01T09:24:07.352Z,23.359375
2022-08-01T09:25:07.230Z,23.40625
2022-08-01T09:26:10.206Z,23.1484375
2022-08-01T09:27:07.350Z,23.1015625
2022-08-01T09:28:07.695Z,23.671875
2022-08-01T09:29:07.330Z,23.3818359375
2022-08-01T09:30:07.236Z,23.138671875
2022-08-01T09:31:07.247Z,22.9755859375
2022-08-01T09:32:08.410Z,22.271484375
2022-08-01T09:33:17.719Z,21.943359375
2022-08-01T09:34:07.327Z,21.4287109375
2022-08-01T09:35:07.264Z,21.2275390625
2022-08-01T09:36:07.250Z,21.228515625
2022-08-01T09:37:10.411Z,21.087890625
2022-08-01T09:38:07.626Z,21.1708984375
2022-08-01T09:39:07.315Z,21.5078125
2022-08-01T09:40:07.260Z,22.1962890625
2022-08-01T09:41:07.252Z,21.87890625
2022-08-01T09:42:07.352Z,21.80078125
2022-08-01T09:43:07.729Z,21.6259765625
2022-08-01T09:44:07.335Z,21.2236328125
2022-08-01T09:45:07.430Z,21.642578125
2022-08-01T09:46:07.318Z,21.9833984375
2022-08-01T09:47:08.120Z,22.134765625
2022-08-01T09:48:07.610Z,22.3896484375
2022-08-01T09:49:10.690Z,24.9296875
2022-08-01T09:50:10.850Z,27.01953125
2022-08-01T09:51:09.570Z,28.1328125
2022-08-01T09:52:07.241Z,28.4921875
2022-08-01T09:53:29.777Z,28.9736328125
2022-08-01T09:54:07.342Z,28.6064453125
2022-08-01T09:55:07.238Z,28.1552734375
2022-08-01T09:56:07.250Z,27.541015625
2022-08-01T09:57:07.741Z,27.0771484375
2022-08-01T09:58:07.680Z,26.822265625
2022-08-01T09:59:07.341Z,26.3740234375
2022-08-01T10:00:08.084Z,25.9150390625
2022-08-01T10:01:07.255Z,26.890625
2022-08-01T10:02:07.681Z,27.400390625
2022-08-01T10:03:10.194Z,27.138671875
2022-08-01T10:04:10.698Z,26.51171875
2022-08-01T10:05:08.112Z,26.3818359375
2022-08-01T10:06:07.258Z,27.5078125
2022-08-01T10:07:07.500Z,28.1328125
2022-08-01T10:08:08.242Z,28.6220703125
2022-08-01T10:09:07.434Z,29.3046875
2022-08-01T10:10:07.249Z,28.7900390625
2022-08-01T10:11:07.308Z,27.6083984375
2022-08-01T10:12:07.258Z,26.8857421875
2022-08-01T10:13:09.822Z,27.361328125
2022-08-01T10:14:07.349Z,27.6953125
2022-08-01T10:15:10.219Z,27.8037109375
2022-08-01T10:16:07.418Z,27.7451171875
2022-08-01T10:17:07.796Z,27.6796875
2022-08-01T10:18:16.840Z,27.265625
2022-08-01T10:19:07.252Z,27.0810546875
2022-08-01T10:20:07.327Z,26.55859375
2022-08-01T10:21:08.583Z,26.3154296875
2022-08-01T10:22:07.701Z,25.544921875
2022-08-01T10:23:07.325Z,25.0087890625
2022-08-01T10:24:07.235Z,24.75
2022-08-01T10:25:07.252Z,24.546875
2022-08-01T10:26:10.250Z,23.5322265625
2022-08-01T10:27:09.370Z,23.263671875
2022-08-01T10:28:07.315Z,23.1943359375
2022-08-01T10:29:45.317Z,22.8203125
2022-08-01T10:30:16.866Z,22.3330078125
2022-08-01T10:31:12.474Z,22.7802734375